createdAt,value
2018-04-22T00:00:51.958Z,21.63
2018-04-22T00:03:21.560Z,21.33
2018-04-22T00:05:50.140Z,22.07
2018-04-22T00:08:18.350Z,21.83
2018-04-22T00:10:49.072Z,21.97
2018-04-22T00:13:16.518Z,21.60
2018-04-22T00:15:43.944Z,21.30
2018-04-22T00:18:12.157Z,23.10
2018-04-22T00:20:56.370Z,22.13
2018-04-22T00:23:27.090Z,22.70
2018-04-22T00:26:05.097Z,22.03
2018-04-22T00:28:34.015Z,23.10
2018-04-22T00:31:04.287Z,23.77
2018-04-22T00:33:36.380Z,22.73
2018-04-22T00:36:04.581Z,23.77
2018-04-22T00:38:32.020Z,22.87
2018-04-22T00:40:59.845Z,21.93
2018-04-22T00:43:27.318Z,22.23
2018-04-22T00:45:54.721Z,23.70
2018-04-22T00:48:22.151Z,23.93
2018-04-22T00:50:49.587Z,24.30
2018-04-22T00:53:17.415Z,22.43
2018-04-22T00:55:44.848Z,23.13
2018-04-22T00:58:13.060Z,24.57
2018-04-22T01:00:40.492Z,23.87
2018-04-22T01:03:07.936Z,23.50
2018-04-22T01:05:36.151Z,24.87
2018-04-22T01:08:03.581Z,24.77
2018-04-22T01:10:31.772Z,24.20
2018-04-22T01:12:59.208Z,24.80
2018-04-22T01:15:26.649Z,23.70
2018-04-22T01:17:54.860Z,26.77
2018-04-22T01:20:22.292Z,25.67
2018-04-22T01:22:49.733Z,25.03
2018-04-22T01:25:17.937Z,26.27
2018-04-22T01:27:46.237Z,26.10
2018-04-22T01:30:14.808Z,28.20
2018-04-22T01:32:43.017Z,26.10
2018-04-22T01:35:10.449Z,27.70
2018-04-22T01:37:37.900Z,28.40
2018-04-22T01:40:05.328Z,28.40
2018-04-22T01:42:33.527Z,29.90
2018-04-22T01:45:00.960Z,29.90
2018-04-22T01:47:28.392Z,28.10
2018-04-22T01:49:56.237Z,30.13
2018-04-22T01:52:23.674Z,31.53
2018-04-22T01:54:51.117Z,29.97
2018-04-22T01:57:19.329Z,29.93
2018-04-22T01:59:46.777Z,28.40
2018-04-22T02:02:14.981Z,31.13
2018-04-22T02:04:42.812Z,31.87
2018-04-22T02:07:10.265Z,31.77
2018-04-22T02:09:38.487Z,34.17
2018-04-22T02:12:05.915Z,32.60
2018-04-22T02:14:33.366Z,31.80
2018-04-22T02:17:01.569Z,33.00
2018-04-22T02:19:29.409Z,32.97
2018-04-22T02:21:56.845Z,33.90
2018-04-22T02:24:25.069Z,36.57
2018-04-22T02:26:52.898Z,35.93
2018-04-22T02:29:20.342Z,34.03
2018-04-22T02:31:47.776Z,37.03
2018-04-22T02:34:15.226Z,32.70
2018-04-22T02:36:43.436Z,34.93
2018-04-22T02:39:11.274Z,35.87
2018-04-22T02:41:39.487Z,33.67
2018-04-22T02:44:06.951Z,36.20
2018-04-22T02:46:34.389Z,35.17
2018-04-22T02:49:01.829Z,34.80
2018-04-22T02:51:29.363Z,35.27
2018-04-22T02:53:57.554Z,33.93
2018-04-22T02:56:25.001Z,34.30
2018-04-22T02:58:53.207Z,33.60
2018-04-22T03:01:21.777Z,31.80
2018-04-22T03:03:49.984Z,33.07
2018-04-22T03:06:17.425Z,32.70
2018-04-22T03:08:45.671Z,35.57
2018-04-22T03:11:13.493Z,31.23
2018-04-22T03:13:41.701Z,32.90
2018-04-22T03:16:09.157Z,33.80
2018-04-22T03:18:36.596Z,31.20
2018-04-22T03:21:04.792Z,32.27
2018-04-22T03:23:33.007Z,34.17
2018-04-22T03:26:00.447Z,36.60
2018-04-22T03:28:28.651Z,34.63
2018-04-22T03:30:56.488Z,32.50
2018-04-22T03:33:23.924Z,32.77
2018-04-22T03:35:51.380Z,32.10
2018-04-22T03:38:18.825Z,32.57
2018-04-22T03:40:47.037Z,33.67
2018-04-22T03:43:14.477Z,33.10
2018-04-22T03:45:41.937Z,35.50
2018-04-22T03:48:09.401Z,36.00
2018-04-22T03:50:37.613Z,33.70
2018-04-22T03:53:05.046Z,33.07
2018-04-22T03:55:33.265Z,34.60
2018-04-22T03:58:00.708Z,33.90
2018-04-22T04:00:28.917Z,35.20
2018-04-22T04:02:56.353Z,33.33
2018-04-22T04:05:24.564Z,34.40
2018-04-22T04:07:51.996Z,35.20
2018-04-22T04:10:19.445Z,37.50
2018-04-22T04:12:46.893Z,35.60
2018-04-22T04:15:14.345Z,37.03
2018-04-22T04:17:41.777Z,37.00
2018-04-22T04:20:21.858Z,39.20
2018-04-22T04:22:50.071Z,38.33
2018-04-22T04:28:24.203Z,38.37
2018-04-22T04:30:51.641Z,37.90
2018-04-22T04:33:19.074Z,39.77
2018-04-22T04:35:46.525Z,36.60
2018-04-22T04:38:13.960Z,36.40
2018-04-22T04:40:42.169Z,39.47
2018-04-22T04:43:09.661Z,37.40
2018-04-22T04:45:37.118Z,39.77
2018-04-22T04:48:04.548Z,38.97
2018-04-22T04:50:32.760Z,36.40
2018-04-22T04:53:00.192Z,39.03
2018-04-22T04:55:27.653Z,40.60
2018-04-22T04:57:55.086Z,36.97
2018-04-22T05:00:22.564Z,38.70
2018-04-22T05:02:49.967Z,37.17
2018-04-22T05:05:17.808Z,37.67
2018-04-22T05:07:45.653Z,38.23
2018-04-22T05:10:13.097Z,34.03
2018-04-22T05:12:41.296Z,33.00
2018-04-22T05:15:08.745Z,33.37
2018-04-22T05:17:36.949Z,34.40
2018-04-22T05:20:04.397Z,34.67
2018-04-22T05:22:31.827Z,33.70
2018-04-22T05:24:59.264Z,32.27
2018-04-22T05:27:27.481Z,30.17
2018-04-22T05:29:56.437Z,30.03
2018-04-22T05:32:23.877Z,30.47
2018-04-22T05:34:51.320Z,30.47
2018-04-22T05:37:19.162Z,31.10
2018-04-22T05:39:46.626Z,30.87
2018-04-22T05:42:14.057Z,29.87
2018-04-22T05:44:41.506Z,30.10
2018-04-22T05:47:08.937Z,28.77
2018-04-22T05:49:36.784Z,28.73
2018-04-22T05:52:04.992Z,29.57
2018-04-22T05:54:32.437Z,29.37
2018-04-22T05:57:00.641Z,27.93
2018-04-22T05:59:28.490Z,27.97
2018-04-22T06:01:55.920Z,28.00
2018-04-22T06:04:23.369Z,26.47
2018-04-22T06:06:50.805Z,27.20
2018-04-22T06:09:19.013Z,26.33
2018-04-22T06:11:46.448Z,26.50
2018-04-22T06:14:14.660Z,27.07
2018-04-22T06:16:42.113Z,25.20
2018-04-22T06:19:10.337Z,25.23
2018-04-22T06:21:37.768Z,24.50
2018-04-22T06:24:05.991Z,24.30
2018-04-22T06:26:33.448Z,23.33
2018-04-22T06:29:00.909Z,22.30
2018-04-22T06:31:28.355Z,21.63
2018-04-22T06:33:56.577Z,19.47
2018-04-22T06:36:24.778Z,21.20
2018-04-22T06:38:52.224Z,19.20
2018-04-22T06:41:19.656Z,19.67
2018-04-22T06:43:47.497Z,19.90
2018-04-22T06:46:14.941Z,19.13
2018-04-22T06:48:42.396Z,18.97
2018-04-22T06:51:09.825Z,20.03
2018-04-22T06:53:38.054Z,19.10
2018-04-22T06:56:05.505Z,18.13
2018-04-22T06:58:33.345Z,17.57
2018-04-22T07:01:00.777Z,18.67
2018-04-22T07:03:28.212Z,18.90
2018-04-22T07:05:55.661Z,17.83
2018-04-22T07:08:23.101Z,17.60
2018-04-22T07:10:50.766Z,16.70
2018-04-22T07:13:18.208Z,18.00
2018-04-22T07:15:45.653Z,16.77
2018-04-22T07:18:13.865Z,18.27
2018-04-22T07:20:41.330Z,17.80
2018-04-22T07:23:08.772Z,18.20
2018-04-22T07:25:36.980Z,16.13
2018-04-22T07:28:04.422Z,15.53
2018-04-22T07:30:32.628Z,16.20
2018-04-22T07:33:00.064Z,16.80
2018-04-22T07:35:28.281Z,16.80
2018-04-22T07:37:55.722Z,15.47
2018-04-22T07:40:23.152Z,16.73
2018-04-22T07:42:50.598Z,17.50
2018-04-22T07:45:18.813Z,16.10
2018-04-22T07:47:47.013Z,15.03
2018-04-22T07:50:14.465Z,16.20
2018-04-22T07:52:41.906Z,15.47
2018-04-22T07:55:09.348Z,14.53
2018-04-22T07:57:36.780Z,15.17
2018-04-22T08:00:04.228Z,14.77
2018-04-22T08:02:31.674Z,14.70
2018-04-22T08:04:59.893Z,14.93
2018-04-22T08:07:27.337Z,15.90
2018-04-22T08:09:54.789Z,13.80
2018-04-22T08:12:22.225Z,14.53
2018-04-22T08:14:50.428Z,15.53
2018-04-22T08:17:17.905Z,15.00
2018-04-22T08:19:46.113Z,15.23
2018-04-22T08:22:13.560Z,13.00
2018-04-22T08:24:41.004Z,13.70
2018-04-22T08:27:09.222Z,15.60
2018-04-22T08:29:36.672Z,14.60
2018-04-22T08:32:04.104Z,13.90
2018-04-22T08:34:31.553Z,13.67
2018-04-22T08:36:59.766Z,12.40
2018-04-22T08:39:27.972Z,12.73
2018-04-22T08:41:55.417Z,12.50
2018-04-22T08:44:23.633Z,12.57
2018-04-22T08:46:51.078Z,13.77
2018-04-22T08:49:19.289Z,13.80
2018-04-22T08:51:46.721Z,12.70
2018-04-22T08:54:14.175Z,12.37
2018-04-22T08:56:41.637Z,12.20
2018-04-22T08:59:09.836Z,10.83
2018-04-22T09:01:37.706Z,12.20
2018-04-22T09:04:05.532Z,12.50
2018-04-22T09:06:32.975Z,12.30
2018-04-22T09:09:01.186Z,11.93
2018-04-22T09:11:28.616Z,11.37
2018-04-22T09:13:56.082Z,12.10
2018-04-22T09:16:23.533Z,11.67
2018-04-22T09:18:50.957Z,11.37
2018-04-22T09:21:18.393Z,11.20
2018-04-22T09:23:46.596Z,11.00
2018-04-22T09:26:15.545Z,12.13
2018-04-22T09:28:43.445Z,11.27
2018-04-22T09:31:10.900Z,11.10
2018-04-22T09:33:38.355Z,11.03
2018-04-22T09:36:05.829Z,10.90
2018-04-22T09:38:33.280Z,10.20
2018-04-22T09:41:00.717Z,9.57
2018-04-22T09:43:28.153Z,10.80
2018-04-22T09:45:55.598Z,9.67
2018-04-22T09:48:23.029Z,10.40
2018-04-22T09:50:50.478Z,9.10
2018-04-22T09:53:18.343Z,9.37
2018-04-22T09:55:46.166Z,9.33
2018-04-22T09:58:13.594Z,8.37
2018-04-22T10:00:41.819Z,8.30
2018-04-22T10:03:09.651Z,7.43
2018-04-22T10:05:42.882Z,9.07
2018-04-22T10:08:11.074Z,7.03
2018-04-22T10:10:38.515Z,7.57
2018-04-22T10:13:06.713Z,7.50
2018-04-22T10:15:34.149Z,7.23
2018-04-22T10:18:01.577Z,7.17
2018-04-22T10:20:29.029Z,7.27
2018-04-22T10:22:56.461Z,7.33
2018-04-22T10:25:23.907Z,7.63
2018-04-22T10:27:51.360Z,8.17
2018-04-22T10:30:18.798Z,8.20
2018-04-22T10:32:46.622Z,7.40
2018-04-22T10:35:14.076Z,7.40
2018-04-22T10:37:41.524Z,7.93
2018-04-22T10:40:09.020Z,7.20
2018-04-22T10:42:36.412Z,7.10
2018-04-22T10:45:04.257Z,7.17
2018-04-22T10:47:31.713Z,8.27
2018-04-22T10:49:59.145Z,7.03
2018-04-22T10:52:26.581Z,7.43
2018-04-22T10:54:54.425Z,6.73
2018-04-22T10:57:22.256Z,6.40
2018-04-22T10:59:50.106Z,6.30
2018-04-22T11:02:17.524Z,7.17
2018-04-22T11:04:44.980Z,6.93
2018-04-22T11:07:13.198Z,6.50
2018-04-22T11:09:40.629Z,6.67
2018-04-22T11:12:08.063Z,7.00
2018-04-22T11:14:35.496Z,6.30
2018-04-22T11:17:02.932Z,6.87
2018-04-22T11:19:30.364Z,5.60
2018-04-22T11:21:58.199Z,7.00
2018-04-22T11:24:25.675Z,4.73
2018-04-22T11:26:53.839Z,4.40
2018-04-22T11:29:21.672Z,4.17
2018-04-22T11:31:49.107Z,2.90
2018-04-22T11:34:16.541Z,3.27
2018-04-22T11:36:43.968Z,2.93
2018-04-22T11:39:11.409Z,3.13
2018-04-22T11:41:38.844Z,2.60
2018-04-22T11:44:06.331Z,2.70
2018-04-22T11:46:34.490Z,3.30
2018-04-22T11:49:02.689Z,3.43
2018-04-22T11:51:30.136Z,2.30
2018-04-22T11:53:58.349Z,2.70
2018-04-22T11:56:26.194Z,2.60
2018-04-22T11:58:53.638Z,3.07
2018-04-22T12:01:21.080Z,2.60
2018-04-22T12:03:48.525Z,2.50
2018-04-22T12:06:16.722Z,3.07
2018-04-22T12:08:44.167Z,2.77
2018-04-22T12:11:12.370Z,2.70
2018-04-22T12:13:39.813Z,3.03
2018-04-22T12:16:08.013Z,2.37
2018-04-22T12:18:35.850Z,2.47
2018-04-22T12:21:03.276Z,3.40
2018-04-22T12:23:30.721Z,3.30
2018-04-22T12:25:58.141Z,2.77
2018-04-22T12:28:25.581Z,2.43
2018-04-22T12:30:54.160Z,3.00
2018-04-22T12:33:21.976Z,3.23
2018-04-22T12:35:49.816Z,2.80
2018-04-22T12:38:17.252Z,2.40
2018-04-22T12:40:45.489Z,2.17
2018-04-22T12:43:12.921Z,3.70
2018-04-22T12:45:40.369Z,3.20
2018-04-22T12:48:08.564Z,2.97
2018-04-22T12:50:36.780Z,2.70
2018-04-22T12:53:04.204Z,3.70
2018-04-22T12:55:32.410Z,3.27
2018-04-22T12:57:59.842Z,3.10
2018-04-22T13:00:28.050Z,3.07
2018-04-22T13:02:56.245Z,3.13
2018-04-22T13:05:25.048Z,3.40
2018-04-22T13:07:52.472Z,3.00
2018-04-22T13:10:20.309Z,3.50
2018-04-22T13:12:48.593Z,3.60
2018-04-22T13:15:16.016Z,3.87
2018-04-22T13:17:43.444Z,3.20
2018-04-22T13:20:10.890Z,2.47
2018-04-22T13:22:38.324Z,2.97
2018-04-22T13:25:05.760Z,2.63
2018-04-22T13:27:33.197Z,3.47
2018-04-22T13:30:00.632Z,2.97
2018-04-22T13:32:28.832Z,3.20
2018-04-22T13:34:56.668Z,3.03
2018-04-22T13:37:24.856Z,3.37
2018-04-22T13:39:53.807Z,2.60
2018-04-22T13:42:21.228Z,3.67
2018-04-22T13:44:48.669Z,2.80
2018-04-22T13:47:16.864Z,3.20
2018-04-22T13:49:44.300Z,3.00
2018-04-22T13:52:11.740Z,4.13
2018-04-22T13:54:39.576Z,3.83
2018-04-22T13:57:07.017Z,2.90
2018-04-22T13:59:34.464Z,2.90
2018-04-22T14:02:02.663Z,3.43
2018-04-22T14:04:30.097Z,2.93
2018-04-22T14:06:57.534Z,3.20
2018-04-22T14:09:24.968Z,3.70
2018-04-22T14:11:52.410Z,3.00
2018-04-22T14:14:20.613Z,3.13
2018-04-22T14:16:48.053Z,3.17
2018-04-22T14:19:16.306Z,2.93
2018-04-22T14:21:43.743Z,3.70
2018-04-22T14:24:11.180Z,3.37
2018-04-22T14:26:39.390Z,3.40
2018-04-22T14:29:06.831Z,4.07
2018-04-22T14:31:34.837Z,3.60
2018-04-22T14:34:02.280Z,3.23
2018-04-22T14:36:30.472Z,3.53
2018-04-22T14:38:58.680Z,3.67
2018-04-22T14:41:26.129Z,3.83
2018-04-22T14:44:06.076Z,3.60
2018-04-22T14:46:33.873Z,4.00
2018-04-22T14:49:05.647Z,4.13
2018-04-22T14:51:33.072Z,5.10
2018-04-22T14:54:01.649Z,4.30
2018-04-22T14:56:29.080Z,4.03
2018-04-22T14:58:56.962Z,3.93
2018-04-22T15:01:24.399Z,3.50
2018-04-22T15:03:52.224Z,3.70
2018-04-22T15:06:20.053Z,3.60
2018-04-22T15:08:48.265Z,3.40
2018-04-22T15:11:15.703Z,4.47
2018-04-22T15:13:43.136Z,3.13
2018-04-22T15:16:10.576Z,3.33
2018-04-22T15:18:38.790Z,3.23
2018-04-22T15:21:06.215Z,3.40
2018-04-22T15:23:33.645Z,3.70
2018-04-22T15:26:01.081Z,3.27
2018-04-22T15:28:28.514Z,3.33
2018-04-22T15:30:55.957Z,3.67
2018-04-22T15:33:23.397Z,4.40
2018-04-22T15:35:50.844Z,3.13
2018-04-22T15:38:18.266Z,3.23
2018-04-22T15:40:46.478Z,4.17
2018-04-22T15:43:15.032Z,3.20
2018-04-22T15:45:42.482Z,3.37
2018-04-22T15:48:09.937Z,3.50
2018-04-22T15:50:37.385Z,3.60
2018-04-22T15:53:04.832Z,4.23
2018-04-22T15:55:32.689Z,4.37
2018-04-22T15:58:00.153Z,3.40
2018-04-22T16:00:27.628Z,3.73
2018-04-22T16:02:55.843Z,3.57
2018-04-22T16:05:23.289Z,4.20
2018-04-22T16:07:51.499Z,4.10
2018-04-22T16:10:18.961Z,4.03
2018-04-22T16:12:46.406Z,3.93
2018-04-22T16:15:14.637Z,4.53
2018-04-22T16:17:42.078Z,4.47
2018-04-22T16:20:09.536Z,4.50
2018-04-22T16:22:38.460Z,3.83
2018-04-22T16:25:05.900Z,4.20
2018-04-22T16:27:34.101Z,3.77
2018-04-22T16:30:01.546Z,3.80
2018-04-22T16:32:29.764Z,3.40
2018-04-22T16:34:57.968Z,4.60
2018-04-22T16:37:25.400Z,4.40
2018-04-22T16:39:53.605Z,4.70
2018-04-22T16:42:21.461Z,4.73
2018-04-22T16:44:49.669Z,4.63
2018-04-22T16:47:17.098Z,5.57
2018-04-22T16:49:45.300Z,5.90
2018-04-22T16:52:13.613Z,4.33
2018-04-22T16:54:41.821Z,4.13
2018-04-22T16:57:10.018Z,4.70
2018-04-22T16:59:37.484Z,4.50
2018-04-22T17:02:04.937Z,4.30
2018-04-22T17:04:32.384Z,3.93
2018-04-22T17:06:59.833Z,4.00
2018-04-22T17:09:28.060Z,4.20
2018-04-22T17:11:55.513Z,3.43
2018-04-22T17:14:22.969Z,3.60
2018-04-22T17:16:50.404Z,2.90
2018-04-22T17:19:17.855Z,4.13
2018-04-22T17:21:45.309Z,3.70
2018-04-22T17:24:12.795Z,3.00
2018-04-22T17:26:41.327Z,4.07
2018-04-22T17:29:08.776Z,4.10
2018-04-22T17:31:36.972Z,3.50
2018-04-22T17:34:05.190Z,3.23
2018-04-22T17:36:32.633Z,3.53
2018-04-22T17:39:00.076Z,4.50
2018-04-22T17:41:28.292Z,3.50
2018-04-22T17:43:55.728Z,3.80
2018-04-22T17:46:23.946Z,4.17
2018-04-22T17:48:52.145Z,3.70
2018-04-22T17:51:20.724Z,4.43
2018-04-22T17:53:48.164Z,4.00
2018-04-22T17:56:15.609Z,3.40
2018-04-22T17:58:43.140Z,4.87
2018-04-22T18:01:10.587Z,3.93
2018-04-22T18:03:38.463Z,4.20
2018-04-22T18:06:06.665Z,4.13
2018-04-22T18:08:34.109Z,3.93
2018-04-22T18:11:02.304Z,3.83
2018-04-22T18:13:30.153Z,4.03
2018-04-22T18:15:57.591Z,4.20
2018-04-22T18:18:25.016Z,3.90
2018-04-22T18:20:52.499Z,4.60
2018-04-22T18:23:19.961Z,4.50
2018-04-22T18:25:47.797Z,4.73
2018-04-22T18:28:15.224Z,4.77
2018-04-22T18:30:42.665Z,4.17
2018-04-22T18:33:10.545Z,4.67
2018-04-22T18:35:37.958Z,4.40
2018-04-22T18:38:05.790Z,5.10
2018-04-22T18:40:33.228Z,3.73
2018-04-22T18:43:00.675Z,4.83
2018-04-22T18:45:28.104Z,5.03
2018-04-22T18:47:55.543Z,5.10
2018-04-22T18:50:23.757Z,4.70
2018-04-22T18:52:51.196Z,6.10
2018-04-22T18:55:19.400Z,5.30
2018-04-22T18:57:47.229Z,5.73
2018-04-22T19:00:15.088Z,4.90
2018-04-22T19:02:42.520Z,4.83
2018-04-22T19:05:09.973Z,4.83
2018-04-22T19:07:38.173Z,5.50
2018-04-22T19:10:05.620Z,4.87
2018-04-22T19:12:33.065Z,5.80
2018-04-22T19:15:00.505Z,6.33
2018-04-22T19:17:27.949Z,4.90
2018-04-22T19:19:55.376Z,5.00
2018-04-22T19:22:23.209Z,6.27
2018-04-22T19:24:51.065Z,7.50
2018-04-22T19:27:18.501Z,5.80
2018-04-22T19:29:46.346Z,6.07
2018-04-22T19:32:13.784Z,5.20
2018-04-22T19:34:41.618Z,5.30
2018-04-22T19:37:09.060Z,5.13
2018-04-22T19:39:36.506Z,5.70
2018-04-22T19:42:03.928Z,7.27
2018-04-22T19:44:32.141Z,6.27
2018-04-22T19:46:59.590Z,6.20
2018-04-22T19:49:27.792Z,5.30
2018-04-22T19:51:55.225Z,7.90
2018-04-22T19:54:22.677Z,11.40
2018-04-22T19:56:50.145Z,7.80
2018-04-22T19:59:17.592Z,7.23
2018-04-22T20:01:45.051Z,16.10
2018-04-22T20:04:12.510Z,6.03
2018-04-22T20:06:39.929Z,6.57
2018-04-22T20:09:07.368Z,7.90
2018-04-22T20:11:35.218Z,5.63
2018-04-22T20:14:02.665Z,5.80
2018-04-22T20:16:31.234Z,6.30
2018-04-22T20:18:58.687Z,6.80
2018-04-22T20:21:26.119Z,5.60
2018-04-22T20:23:54.349Z,6.43
2018-04-22T20:26:21.785Z,6.43
2018-04-22T20:28:49.228Z,5.37
2018-04-22T20:31:17.445Z,6.50
2018-04-22T20:33:44.895Z,6.30
2018-04-22T20:36:12.340Z,6.20
2018-04-22T20:38:40.549Z,4.77
2018-04-22T20:41:07.994Z,5.70
2018-04-22T20:43:36.197Z,6.77
2018-04-22T20:46:03.628Z,7.50
2018-04-22T20:48:31.068Z,8.20
2018-04-22T20:50:58.522Z,7.70
2018-04-22T20:53:25.984Z,7.50
2018-04-22T20:55:53.426Z,7.97
2018-04-22T20:58:21.689Z,9.20
2018-04-22T21:00:49.127Z,7.93
2018-04-22T21:03:16.554Z,8.67
2018-04-22T21:05:44.001Z,8.93
2018-04-22T21:08:11.441Z,7.50
2018-04-22T21:10:38.893Z,8.00
2018-04-22T21:13:06.333Z,7.60
2018-04-22T21:15:33.765Z,6.20
2018-04-22T21:18:01.968Z,6.90
2018-04-22T21:20:29.810Z,6.70
2018-04-22T21:22:57.243Z,6.60
2018-04-22T21:25:25.209Z,6.60
2018-04-22T21:27:52.629Z,6.80
2018-04-22T21:30:20.072Z,6.67
2018-04-22T21:32:47.505Z,6.60
2018-04-22T21:35:14.941Z,6.30
2018-04-22T21:37:43.136Z,5.80
2018-04-22T21:40:11.711Z,6.90
2018-04-22T21:42:39.164Z,7.20
2018-04-22T21:45:06.621Z,6.20
2018-04-22T21:47:34.049Z,6.40
2018-04-22T21:50:01.492Z,7.07
2018-04-22T21:52:29.699Z,5.63
2018-04-22T21:54:57.179Z,6.73
2018-04-22T21:57:25.951Z,6.60
2018-04-22T21:59:54.161Z,6.30
2018-04-22T22:02:21.991Z,6.10
2018-04-22T22:04:50.801Z,7.60
2018-04-22T22:07:18.220Z,6.23
2018-04-22T22:09:46.808Z,6.83
2018-04-22T22:12:14.256Z,6.70
2018-04-22T22:14:41.719Z,5.70
2018-04-22T22:17:09.925Z,6.30
2018-04-22T22:19:37.367Z,7.90
2018-04-22T22:22:05.560Z,6.83
2018-04-22T22:24:33.001Z,6.70
2018-04-22T22:27:00.428Z,6.47
2018-04-22T22:29:27.870Z,5.50
2018-04-22T22:31:56.433Z,6.23
2018-04-22T22:34:24.641Z,6.20
2018-04-22T22:36:52.068Z,6.00
2018-04-22T22:39:19.505Z,7.53
2018-04-22T22:41:46.940Z,6.90
2018-04-22T22:44:15.151Z,7.13
2018-04-22T22:46:42.585Z,6.90
2018-04-22T22:49:11.548Z,6.43
2018-04-22T22:51:38.980Z,7.17
2018-04-22T22:54:06.435Z,6.30
2018-04-22T22:56:33.869Z,6.00
2018-04-22T22:59:01.311Z,6.50
2018-04-22T23:01:28.736Z,5.93
2018-04-22T23:03:56.942Z,7.13
2018-04-22T23:06:24.400Z,6.50
2018-04-22T23:08:52.588Z,6.00
2018-04-22T23:11:20.021Z,6.50
2018-04-22T23:13:48.259Z,7.60
2018-04-22T23:16:15.665Z,6.33
2018-04-22T23:18:43.104Z,5.57
2018-04-22T23:21:10.545Z,6.97
2018-04-22T23:23:38.385Z,7.10
2018-04-22T23:26:06.595Z,6.10
2018-04-22T23:28:34.427Z,5.90
2018-04-22T23:31:01.895Z,5.73
2018-04-22T23:33:29.296Z,6.30
2018-04-22T23:35:57.885Z,6.10
2018-04-22T23:38:26.076Z,5.60
2018-04-22T23:40:54.288Z,5.00
2018-04-22T23:43:21.721Z,5.93
2018-04-22T23:45:49.931Z,6.00
2018-04-22T23:48:17.364Z,5.23
2018-04-22T23:50:44.809Z,5.30
2018-04-22T23:53:12.245Z,5.07
2018-04-22T23:55:39.679Z,5.47
2018-04-22T23:58:07.890Z,3.13
